ADDS METAR Data INFO
IDs: Format: Raw Decoded Include TAF

Data at: 1247 UTC 19 Oct 2017

KORD 191151Z 27004KT 10SM SCT250 11/07 A3010 RMK AO2 SLP194 T01110072 10156 20111 52022
KORD 191051Z 26005KT 10SM SCT250 12/08 A3008 RMK AO2 SLP187 T01170078
KORD 190951Z 25006KT 10SM FEW250 12/08 A3006 RMK AO2 SLP177 T01220078
KORD 190851Z 23007KT 10SM FEW250 13/08 A3004 RMK AO2 SLP170 T01330078 53005
KORD 190751Z 23009KT 10SM CLR 14/07 A3003 RMK AO2 SLP168 T01390072
KORD 190651Z 23010KT 10SM FEW250 15/07 A3003 RMK AO2 SLP166 T01500072
KORD 190551Z 22011KT 10SM CLR 16/07 A3002 RMK AO2 SLP165 T01560067 10189 20156 402170083 58007
KORD 190451Z 22012G17KT 10SM FEW250 16/07 A3003 RMK AO2 SLP169 T01610067
KORD 190351Z 22012KT 10SM FEW250 17/06 A3005 RMK AO2 SLP174 T01720061
KORD 190251Z 22011KT 10SM FEW250 18/06 A3004 RMK AO2 SLP174 T01780056 53004
KORD 190151Z 21013KT 10SM SCT250 18/06 A3003 RMK AO2 SLP167 T01780056
KORD 190051Z 20010KT 10SM BKN250 18/05 A3003 RMK AO2 SLP169 T01780050
KORD 182351Z 20010KT 10SM SCT250 19/05 A3003 RMK AO2 SLP169 T01890050 10217 20189 53002
KORD 182251Z 20013KT 10SM FEW250 20/05 A3001 RMK AO2 SLP161 T02000050
KORD 182151Z 19017KT 10SM FEW250 21/06 A3001 RMK AO2 SLP163 T02110056
KORD 182051Z 21016G24KT 10SM CLR 21/05 A3002 RMK AO2 SLP166 T02110050 56023
KORD 181951Z 21014G24KT 10SM CLR 21/06 A3005 RMK AO2 SLP173 T02110056
KORD 181851Z 19018G24KT 10SM CLR 21/07 A3007 RMK AO2 SLP180 T02060067
KORD 181751Z 19018G23KT 10SM CLR 20/07 A3009 RMK AO2 SLP189 T02000067 10200 20089 58019
KORD 181651Z 21010KT 10SM CLR 19/06 A3012 RMK AO2 SLP197 T01890061
KORD 181551Z 22013KT 10SM CLR 17/06 A3013 RMK AO2 SLP203 T01670056
KORD 181451Z 20010KT 10SM CLR 14/06 A3015 RMK AO2 SLP209 T01440056 50000
KORD 181351Z 21009KT 10SM CLR 13/06 A3016 RMK AO2 SLP211 T01280056
KORD 181251Z 19007KT 10SM CLR 10/06 A3015 RMK AO2 SLP212 T01000056
KORD 181151Z COR 19006KT 10SM CLR 09/05 A3015 RMK AO2 SLP210 T00940050 10133 20083 50001
KORD 181051Z 19006KT 10SM CLR 09/05 A3015 RMK AO2 SLP210 T00890050
KORD 180951Z 18006KT 10SM CLR 09/05 A3015 RMK AO2 SLP209 T00940050
KORD 180851Z 19006KT 10SM CLR 11/04 A3015 RMK AO2 SLP208 T01060044 53001
KORD 180751Z 19009KT 10SM CLR 12/04 A3014 RMK AO2 SLP206 T01170044
KORD 180651Z 21009KT 10SM CLR 12/04 A3014 RMK AO2 SLP206 T01220044
KORD 180551Z 22008KT 10SM CLR 13/04 A3014 RMK AO2 SLP206 T01330039 10178 20133 402110100 55001
KORD 180451Z 20009KT 10SM CLR 14/04 A3014 RMK AO2 SLP207 T01390044
KORD 180351Z 20009KT 10SM CLR 14/05 A3014 RMK AO2 SLP207 T01390050
KORD 180251Z 20009KT 10SM FEW250 15/05 A3015 RMK AO2 SLP208 T01500050 53011
KORD 180151Z 21010KT 10SM CLR 16/04 A3014 RMK AO2 SLP204 T01610044
KORD 180051Z 20007KT 10SM FEW250 17/05 A3012 RMK AO2 SLP202 T01670050